EST,Max TemperatureF,Mean TemperatureF,Min TemperatureF,Max Dew PointF,MeanDew PointF,Min DewpointF,Max Humidity, Mean Humidity, Min Humidity, Max Sea Level PressureIn, Mean Sea Level PressureIn, Min Sea Level PressureIn, Max VisibilityMiles, Mean VisibilityMiles, Min VisibilityMiles, Max Wind SpeedMPH, Mean Wind SpeedMPH, Max Gust SpeedMPH,PrecipitationIn, CloudCover, Events, WindDirDegrees
2012-11-1,65,54,42,23,18,13,45,27,13,29.96,29.89,29.85,10,10,10,20,7,23,0.00,0,,286
2012-11-2,76,63,49,44,33,19,48,34,25,30.00,29.94,29.87,10,10,10,14,5,23,0.00,0,,279
2012-11-3,79,64,49,46,42,38,71,50,25,30.12,30.04,29.99,10,10,10,12,3,15,0.00,0,,119
2012-11-4,81,70,59,55,52,47,78,58,35,30.01,29.96,29.90,10,10,10,15,6,25,T,1,Rain,266
2012-11-5,64,58,51,48,41,36,83,57,37,30.08,30.01,29.95,10,10,10,15,5,20,0.00,2,,48
2012-11-6,54,47,40,42,37,32,76,64,52,30.03,29.98,29.94,10,10,8,18,8,24,0.03,6,Rain,50
2012-11-7,47,43,39,41,38,33,93,84,76,30.01,29.95,29.90,10,8,5,7,3,9,0.06,7,Rain,330
2012-11-8,65,52,39,41,35,26,93,60,24,30.17,30.11,30.01,10,8,4,10,5,15,0.00,0,,312
2012-11-9,69,55,40,38,33,28,82,49,22,30.30,30.24,30.17,10,10,10,9,3,13,0.00,0,,288
2012-11-10,72,57,41,39,36,31,83,51,22,30.38,30.33,30.27,10,10,7,10,2,14,0.00,0,,141
2012-11-11,74,61,47,57,47,38,73,61,46,30.45,30.38,30.35,10,10,10,13,3,17,0.00,4,,101
2012-11-12,73,66,58,63,59,56,100,85,73,30.35,30.27,30.19,10,9,4,15,5,21,0.04,4,Rain,143
2012-11-13,63,56,49,62,52,39,100,82,64,30.33,30.24,30.17,10,10,10,16,7,20,T,8,Rain,348
2012-11-14,53,50,47,40,37,34,71,60,46,30.40,30.33,30.27,10,10,10,17,10,23,0.01,8,Rain,44
2012-11-15,50,46,42,44,41,39,96,88,74,30.31,30.27,30.23,10,7,2,15,6,24,0.61,7,Rain,2
2012-11-16,59,50,41,42,39,37,89,75,47,30.33,30.28,30.25,10,10,8,13,6,15,0.00,3,,4
2012-11-17,61,50,38,38,31,25,85,51,26,30.42,30.37,30.33,10,10,10,16,10,21,0.00,2,,25
2012-11-18,62,55,48,45,39,30,62,57,41,30.39,30.33,30.28,10,10,10,16,9,22,0.00,6,,14
2012-11-19,68,59,50,49,46,43,83,67,48,30.28,30.23,30.17,10,10,10,16,8,21,T,4,Rain,4
2012-11-20,65,55,45,47,45,42,93,72,52,30.18,30.12,30.06,10,10,10,12,3,16,0.00,1,,343
2012-11-21,67,56,44,45,39,30,93,60,26,30.17,30.13,30.08,10,10,10,14,5,18,0.00,0,,358
2012-11-22,67,55,42,37,34,30,70,49,26,30.27,30.21,30.17,10,10,10,9,4,20,0.00,0,,347
2012-11-23,71,55,39,47,40,36,85,56,31,30.19,30.08,29.98,10,10,10,17,3,41,0.00,1,,272
2012-11-24,60,51,41,30,25,18,58,39,21,30.12,30.05,30.00,10,10,10,21,8,30,0.00,0,,304
2012-11-25,59,46,32,24,20,18,69,39,21,30.21,30.14,30.09,10,10,10,9,3,12,0.00,0,,74
2012-11-26,69,53,37,25,21,16,59,31,12,30.24,30.18,30.14,10,10,10,9,2,12,0.00,0,,214
2012-11-27,56,52,47,51,44,27,100,79,28,30.20,30.17,30.12,10,8,0,15,3,20,0.15,7,Fog-Rain,276
2012-11-28,59,51,43,52,44,37,100,78,51,30.39,30.30,30.19,10,8,1,10,4,14,0.00,5,,39
2012-11-29,61,49,37,38,33,25,92,59,25,30.47,30.41,30.36,10,10,6,9,3,14,0.00,0,,103
2012-11-30,65,53,41,48,41,31,76,63,47,30.40,30.35,30.30,10,10,10,7,2,9,0.00,4,,105